sensor_id;sensor_type;location;lat;lon;timestamp;pressure;altitude;pressure_sealevel;temperature;humidity
30873;BME280;17579;42.690;2.586;2023-08-20T00:01:27;97406.53;;;28.33;50.59
30873;BME280;17579;42.690;2.586;2023-08-20T00:03:56;97400.31;;;28.38;50.29
30873;BME280;17579;42.690;2.586;2023-08-20T00:06:39;97404.16;;;28.42;50.46
30873;BME280;17579;42.690;2.586;2023-08-20T00:09:23;97397.84;;;28.37;50.41
30873;BME280;17579;42.690;2.586;2023-08-20T00:11:55;97402.22;;;28.38;50.03
30873;BME280;17579;42.690;2.586;2023-08-20T00:17:06;97401.66;;;28.35;50.10
30873;BME280;17579;42.690;2.586;2023-08-20T00:19:49;97400.78;;;28.30;50.51
30873;BME280;17579;42.690;2.586;2023-08-20T00:22:38;97395.94;;;28.37;50.04
30873;BME280;17579;42.690;2.586;2023-08-20T00:25:13;97397.84;;;28.37;49.78
30873;BME280;17579;42.690;2.586;2023-08-20T00:27:40;97397.03;;;28.36;50.18
30873;BME280;17579;42.690;2.586;2023-08-20T00:30:06;97397.03;;;28.36;49.74
30873;BME280;17579;42.690;2.586;2023-08-20T00:32:35;97394.06;;;28.38;49.64
30873;BME280;17579;42.690;2.586;2023-08-20T00:35:10;97391.03;;;28.34;50.16
30873;BME280;17579;42.690;2.586;2023-08-20T00:37:56;97396.72;;;28.32;49.87
30873;BME280;17579;42.690;2.586;2023-08-20T00:40:22;97396.16;;;28.30;49.61
30873;BME280;17579;42.690;2.586;2023-08-20T00:42:48;97398.31;;;28.28;49.89
30873;BME280;17579;42.690;2.586;2023-08-20T00:45:24;97393.13;;;28.27;49.74
30873;BME280;17579;42.690;2.586;2023-08-20T00:51:12;97389.84;;;28.25;50.21
30873;BME280;17579;42.690;2.586;2023-08-20T00:53:38;97387.41;;;28.23;50.06
30873;BME280;17579;42.690;2.586;2023-08-20T00:56:07;97396.63;;;28.22;49.97
30873;BME280;17579;42.690;2.586;2023-08-20T00:58:35;97388.47;;;28.22;49.74
30873;BME280;17579;42.690;2.586;2023-08-20T01:01:04;97389.53;;;28.21;49.83
30873;BME280;17579;42.690;2.586;2023-08-20T01:03:32;97388.19;;;28.24;49.58
30873;BME280;17579;42.690;2.586;2023-08-20T01:09:40;97393.91;;;28.22;49.98
30873;BME280;17579;42.690;2.586;2023-08-20T01:12:16;97388.50;;;28.27;49.71
30873;BME280;17579;42.690;2.586;2023-08-20T01:14:42;97386.63;;;28.28;49.61
30873;BME280;17579;42.690;2.586;2023-08-20T01:17:28;97383.06;;;28.27;49.51
30873;BME280;17579;42.690;2.586;2023-08-20T01:19:54;97391.47;;;28.26;49.55
30873;BME280;17579;42.690;2.586;2023-08-20T01:25:41;97386.25;;;28.19;49.95
30873;BME280;17579;42.690;2.586;2023-08-20T01:28:38;97388.75;;;28.26;49.64
30873;BME280;17579;42.690;2.586;2023-08-20T01:31:08;97386.00;;;28.21;49.61
30873;BME280;17579;42.690;2.586;2023-08-20T01:34:23;97391.69;;;28.19;50.02
30873;BME280;17579;42.690;2.586;2023-08-20T01:37:06;97387.03;;;28.14;49.78
30873;BME280;17579;42.690;2.586;2023-08-20T01:39:50;97380.38;;;28.05;49.78
30873;BME280;17579;42.690;2.586;2023-08-20T01:42:18;97383.44;;;28.09;49.74
30873;BME280;17579;42.690;2.586;2023-08-20T01:45:10;97382.03;;;28.06;50.08
30873;BME280;17579;42.690;2.586;2023-08-20T01:47:41;97380.94;;;28.07;50.01
30873;BME280;17579;42.690;2.586;2023-08-20T01:50:10;97385.31;;;28.08;50.18
30873;BME280;17579;42.690;2.586;2023-08-20T01:52:56;97381.00;;;28.12;50.12
30873;BME280;17579;42.690;2.586;2023-08-20T01:55:22;97388.34;;;28.12;50.07
30873;BME280;17579;42.690;2.586;2023-08-20T01:58:13;97378.88;;;28.14;49.97
30873;BME280;17579;42.690;2.586;2023-08-20T02:00:45;97383.47;;;28.14;50.08
30873;BME280;17579;42.690;2.586;2023-08-20T02:03:11;97386.19;;;28.14;49.96
30873;BME280;17579;42.690;2.586;2023-08-20T02:05:37;97374.25;;;28.15;49.68
30873;BME280;17579;42.690;2.586;2023-08-20T02:08:04;97380.75;;;28.14;50.31
30873;BME280;17579;42.690;2.586;2023-08-20T02:10:29;97383.22;;;28.15;49.83
30873;BME280;17579;42.690;2.586;2023-08-20T02:13:01;97378.88;;;28.14;49.65
30873;BME280;17579;42.690;2.586;2023-08-20T02:15:57;97376.59;;;28.06;49.89
30873;BME280;17579;42.690;2.586;2023-08-20T02:18:28;97386.44;;;28.12;49.45
30873;BME280;17579;42.690;2.586;2023-08-20T02:21:35;97383.44;;;28.09;49.61
30873;BME280;17579;42.690;2.586;2023-08-20T02:24:23;97388.03;;;28.08;49.50
30873;BME280;17579;42.690;2.586;2023-08-20T02:26:52;97389.88;;;28.03;49.43
30873;BME280;17579;42.690;2.586;2023-08-20T02:29:41;97377.53;;;27.95;50.06
30873;BME280;17579;42.690;2.586;2023-08-20T02:32:21;97382.81;;;28.02;49.50
30873;BME280;17579;42.690;2.586;2023-08-20T02:34:50;97386.84;;;27.99;49.55
30873;BME280;17579;42.690;2.586;2023-08-20T02:37:23;97384.13;;;27.99;50.03
30873;BME280;17579;42.690;2.586;2023-08-20T02:40:04;97384.13;;;27.99;49.34
30873;BME280;17579;42.690;2.586;2023-08-20T02:42:30;97384.34;;;27.97;49.53
30873;BME280;17579;42.690;2.586;2023-08-20T02:44:56;97385.69;;;27.95;49.59
30873;BME280;17579;42.690;2.586;2023-08-20T02:47:22;97387.59;;;27.94;49.81
30873;BME280;17579;42.690;2.586;2023-08-20T02:49:47;97383.78;;;27.95;49.52
30873;BME280;17579;42.690;2.586;2023-08-20T02:52:13;97385.69;;;27.95;49.61
30873;BME280;17579;42.690;2.586;2023-08-20T02:54:39;97384.03;;;27.94;49.87
30873;BME280;17579;42.690;2.586;2023-08-20T02:57:08;97384.03;;;27.94;49.57
30873;BME280;17579;42.690;2.586;2023-08-20T02:59:36;97375.06;;;27.93;49.95
30873;BME280;17579;42.690;2.586;2023-08-20T03:02:23;97380.50;;;27.93;49.59
30873;BME280;17579;42.690;2.586;2023-08-20T03:04:49;97378.84;;;27.92;49.63
30873;BME280;17579;42.690;2.586;2023-08-20T03:07:24;97385.09;;;27.93;49.98
30873;BME280;17579;42.690;2.586;2023-08-20T03:09:55;97382.63;;;27.91;50.07
30873;BME280;17579;42.690;2.586;2023-08-20T03:12:34;97386.38;;;27.85;49.89
30873;BME280;17579;42.690;2.586;2023-08-20T03:15:26;97380.94;;;27.85;49.87
30873;BME280;17579;42.690;2.586;2023-08-20T03:18:00;97386.25;;;27.75;49.66
30873;BME280;17579;42.690;2.586;2023-08-20T03:20:29;97390.31;;;27.72;49.92
30873;BME280;17579;42.690;2.586;2023-08-20T03:23:39;97388.59;;;27.66;49.82
30873;BME280;17579;42.690;2.586;2023-08-20T03:27:29;97392.81;;;27.57;50.08
30873;BME280;17579;42.690;2.586;2023-08-20T03:29:13;97393.97;;;27.61;50.07
30873;BME280;17579;42.690;2.586;2023-08-20T03:31:41;97392.00;;;27.56;50.57
30873;BME280;17579;42.690;2.586;2023-08-20T03:34:42;97388.91;;;27.47;50.22
30873;BME280;17579;42.690;2.586;2023-08-20T03:37:25;97393.41;;;27.59;50.55
30873;BME280;17579;42.690;2.586;2023-08-20T03:42:59;97390.94;;;27.57;50.54
30873;BME280;17579;42.690;2.586;2023-08-20T03:45:56;97388.00;;;27.64;50.15
30873;BME280;17579;42.690;2.586;2023-08-20T03:48:44;97397.50;;;27.61;50.07
30873;BME280;17579;42.690;2.586;2023-08-20T03:51:13;97394.84;;;27.66;50.26
30873;BME280;17579;42.690;2.586;2023-08-20T03:53:38;97397.00;;;27.64;50.15
30873;BME280;17579;42.690;2.586;2023-08-20T03:56:19;97396.66;;;27.61;50.50
30873;BME280;17579;42.690;2.586;2023-08-20T03:59:06;97395.34;;;27.63;50.13
30873;BME280;17579;42.690;2.586;2023-08-20T04:01:34;97396.41;;;27.62;50.21
30873;BME280;17579;42.690;2.586;2023-08-20T04:04:11;97387.72;;;27.60;50.22
30873;BME280;17579;42.690;2.586;2023-08-20T04:06:48;97399.34;;;27.56;50.56
30873;BME280;17579;42.690;2.586;2023-08-20T04:09:14;97391.75;;;27.58;50.29
30873;BME280;17579;42.690;2.586;2023-08-20T04:11:43;97390.09;;;27.57;50.41
30873;BME280;17579;42.690;2.586;2023-08-20T04:14:17;97393.31;;;27.54;50.53
30873;BME280;17579;42.690;2.586;2023-08-20T04:16:43;97391.75;;;27.58;50.26
30873;BME280;17579;42.690;2.586;2023-08-20T04:19:09;97396.94;;;27.59;50.50
30873;BME280;17579;42.690;2.586;2023-08-20T04:21:35;97397.19;;;27.58;50.49
30873;BME280;17579;42.690;2.586;2023-08-20T04:24:10;97399.09;;;27.57;50.24
30873;BME280;17579;42.690;2.586;2023-08-20T04:26:45;97393.91;;;27.56;50.35
30873;BME280;17579;42.690;2.586;2023-08-20T04:29:10;97393.06;;;27.55;50.21
30873;BME280;17579;42.690;2.586;2023-08-20T04:31:43;97403.38;;;27.53;50.24
30873;BME280;17579;42.690;2.586;2023-08-20T04:34:20;97405.25;;;27.53;50.38
30873;BME280;17579;42.690;2.586;2023-08-20T04:37:06;97415.06;;;27.54;50.13
30873;BME280;17579;42.690;2.586;2023-08-20T04:39:35;97410.13;;;27.51;49.95
30873;BME280;17579;42.690;2.586;2023-08-20T04:42:06;97405.19;;;27.47;50.33
30873;BME280;17579;42.690;2.586;2023-08-20T04:44:34;97402.22;;;27.49;50.16
30873;BME280;17579;42.690;2.586;2023-08-20T04:47:20;97407.41;;;27.51;50.45
30873;BME280;17579;42.690;2.586;2023-08-20T04:49:49;97412.28;;;27.48;50.26
30873;BME280;17579;42.690;2.586;2023-08-20T04:52:15;97406.59;;;27.50;49.87
30873;BME280;17579;42.690;2.586;2023-08-20T04:54:44;97411.78;;;27.52;49.96
30873;BME280;17579;42.690;2.586;2023-08-20T04:57:32;97414.50;;;27.52;50.00
30873;BME280;17579;42.690;2.586;2023-08-20T05:00:06;97414.25;;;27.53;50.06
30873;BME280;17579;42.690;2.586;2023-08-20T05:02:50;97416.63;;;27.49;50.08
30873;BME280;17579;42.690;2.586;2023-08-20T05:05:22;97409.38;;;27.55;49.79
30873;BME280;17579;42.690;2.586;2023-08-20T05:08:00;97409.38;;;27.55;50.03
30873;BME280;17579;42.690;2.586;2023-08-20T05:10:29;97409.13;;;27.57;49.95
30873;BME280;17579;42.690;2.586;2023-08-20T05:13:05;97416.78;;;27.60;49.52
30873;BME280;17579;42.690;2.586;2023-08-20T05:15:43;97421.63;;;27.58;50.07
30873;BME280;17579;42.690;2.586;2023-08-20T05:18:11;97413.56;;;27.63;49.50
30873;BME280;17579;42.690;2.586;2023-08-20T05:20:45;97420.38;;;27.65;49.64
30873;BME280;17579;42.690;2.586;2023-08-20T05:23:17;97409.50;;;27.65;49.92
30873;BME280;17579;42.690;2.586;2023-08-20T05:29:10;97419.94;;;27.74;49.47
30873;BME280;17579;42.690;2.586;2023-08-20T05:32:09;97421.84;;;27.73;49.71
30873;BME280;17579;42.690;2.586;2023-08-20T05:37:35;97426.59;;;27.83;49.60
30873;BME280;17579;42.690;2.586;2023-08-20T05:40:37;97420.28;;;27.77;49.94
30873;BME280;17579;42.690;2.586;2023-08-20T05:43:08;97432.91;;;27.89;49.53
30873;BME280;17579;42.690;2.586;2023-08-20T05:45:35;97435.38;;;27.90;49.72
30873;BME280;17579;42.690;2.586;2023-08-20T05:51:07;97440.06;;;27.95;49.95
30873;BME280;17579;42.690;2.586;2023-08-20T05:53:47;97434.59;;;28.12;49.33
30873;BME280;17579;42.690;2.586;2023-08-20T05:56:35;97441.19;;;28.21;49.58
30873;BME280;17579;42.690;2.586;2023-08-20T05:59:24;97442.22;;;28.64;49.00
30873;BME280;17579;42.690;2.586;2023-08-20T06:01:56;97443.53;;;28.89;48.73
30873;BME280;17579;42.690;2.586;2023-08-20T06:04:53;97445.75;;;29.25;48.37
30873;BME280;17579;42.690;2.586;2023-08-20T06:07:28;97450.84;;;29.53;47.87
30873;BME280;17579;42.690;2.586;2023-08-20T06:12:58;97450.38;;;30.15;46.83
30873;BME280;17579;42.690;2.586;2023-08-20T06:15:23;97448.06;;;30.49;46.21
30873;BME280;17579;42.690;2.586;2023-08-20T06:17:55;97451.94;;;30.79;46.27
30873;BME280;17579;42.690;2.586;2023-08-20T06:20:26;97457.72;;;31.14;45.35
30873;BME280;17579;42.690;2.586;2023-08-20T06:23:17;97455.50;;;31.36;45.94
30873;BME280;17579;42.690;2.586;2023-08-20T06:26:11;97455.75;;;31.71;45.30
30873;BME280;17579;42.690;2.586;2023-08-20T06:28:43;97458.38;;;32.07;44.09
30873;BME280;17579;42.690;2.586;2023-08-20T06:31:18;97459.88;;;32.39;43.51
30873;BME280;17579;42.690;2.586;2023-08-20T06:33:51;97456.50;;;32.57;43.17
30873;BME280;17579;42.690;2.586;2023-08-20T06:36:29;97452.53;;;32.79;42.51
30873;BME280;17579;42.690;2.586;2023-08-20T06:39:20;97457.78;;;33.10;41.94
30873;BME280;17579;42.690;2.586;2023-08-20T06:42:06;97455.38;;;33.38;41.47
30873;BME280;17579;42.690;2.586;2023-08-20T06:44:34;97452.31;;;33.68;40.60
30873;BME280;17579;42.690;2.586;2023-08-20T06:47:16;97453.00;;;33.84;41.17
30873;BME280;17579;42.690;2.586;2023-08-20T06:49:54;97456.94;;;34.22;39.63
30873;BME280;17579;42.690;2.586;2023-08-20T06:52:20;97453.63;;;34.44;38.80
30873;BME280;17579;42.690;2.586;2023-08-20T06:55:07;97459.16;;;34.63;38.95
30873;BME280;17579;42.690;2.586;2023-08-20T06:58:13;97459.69;;;34.84;39.71
30873;BME280;17579;42.690;2.586;2023-08-20T07:00:47;97461.22;;;35.09;38.27
30873;BME280;17579;42.690;2.586;2023-08-20T07:03:28;97457.78;;;35.17;36.96
30873;BME280;17579;42.690;2.586;2023-08-20T07:06:14;97453.91;;;35.18;37.51
30873;BME280;17579;42.690;2.586;2023-08-20T07:08:46;97461.72;;;35.30;37.58
30873;BME280;17579;42.690;2.586;2023-08-20T07:11:21;97460.88;;;35.30;37.60
30873;BME280;17579;42.690;2.586;2023-08-20T07:13:59;97462.00;;;35.29;37.72
30873;BME280;17579;42.690;2.586;2023-08-20T07:16:39;97466.38;;;35.30;37.35
30873;BME280;17579;42.690;2.586;2023-08-20T07:19:07;97461.34;;;35.51;36.81
30873;BME280;17579;42.690;2.586;2023-08-20T07:21:56;97464.91;;;35.51;37.30
30873;BME280;17579;42.690;2.586;2023-08-20T07:24:40;97472.81;;;35.72;37.14
30873;BME280;17579;42.690;2.586;2023-08-20T07:30:39;97480.88;;;35.82;36.54
30873;BME280;17579;42.690;2.586;2023-08-20T07:33:13;97469.88;;;35.96;35.06
30873;BME280;17579;42.690;2.586;2023-08-20T07:35:45;97476.50;;;35.95;34.57
30873;BME280;17579;42.690;2.586;2023-08-20T07:38:25;97470.06;;;35.86;35.59
30873;BME280;17579;42.690;2.586;2023-08-20T07:40:51;97484.78;;;35.95;34.61
30873;BME280;17579;42.690;2.586;2023-08-20T07:43:37;97482.22;;;35.85;35.13
30873;BME280;17579;42.690;2.586;2023-08-20T07:46:37;97475.97;;;35.93;34.38
30873;BME280;17579;42.690;2.586;2023-08-20T07:55:24;97483.03;;;35.99;34.41
30873;BME280;17579;42.690;2.586;2023-08-20T07:58:03;97490.47;;;36.13;34.90
30873;BME280;17579;42.690;2.586;2023-08-20T08:01:10;97492.28;;;36.17;34.55
30873;BME280;17579;42.690;2.586;2023-08-20T08:03:55;97492.69;;;36.24;34.43
30873;BME280;17579;42.690;2.586;2023-08-20T08:06:58;97493.34;;;36.35;33.84
30873;BME280;17579;42.690;2.586;2023-08-20T08:09:43;97491.28;;;36.27;33.96
30873;BME280;17579;42.690;2.586;2023-08-20T08:12:25;97498.16;;;36.30;34.11
30873;BME280;17579;42.690;2.586;2023-08-20T08:15:10;97497.03;;;36.31;33.91
30873;BME280;17579;42.690;2.586;2023-08-20T08:17:46;97499.22;;;36.29;33.53
30873;BME280;17579;42.690;2.586;2023-08-20T08:20:14;97508.19;;;36.20;32.97
30873;BME280;17579;42.690;2.586;2023-08-20T08:25:59;97507.28;;;36.11;32.81
30873;BME280;17579;42.690;2.586;2023-08-20T08:28:27;97504.22;;;35.99;33.31
30873;BME280;17579;42.690;2.586;2023-08-20T08:30:53;97511.88;;;35.88;33.40
30873;BME280;17579;42.690;2.586;2023-08-20T08:33:56;97504.59;;;35.78;34.10
30873;BME280;17579;42.690;2.586;2023-08-20T08:36:49;97507.66;;;35.77;34.55
30873;BME280;17579;42.690;2.586;2023-08-20T08:39:49;97503.25;;;35.62;34.60
30873;BME280;17579;42.690;2.586;2023-08-20T08:42:47;97512.09;;;35.59;34.79
30873;BME280;17579;42.690;2.586;2023-08-20T08:45:36;97508.22;;;35.60;34.94
30873;BME280;17579;42.690;2.586;2023-08-20T08:48:05;97508.13;;;35.51;35.25
30873;BME280;17579;42.690;2.586;2023-08-20T08:51:02;97509.69;;;35.38;35.11
30873;BME280;17579;42.690;2.586;2023-08-20T08:53:29;97506.66;;;35.39;35.24
30873;BME280;17579;42.690;2.586;2023-08-20T08:55:59;97508.91;;;35.37;35.45
30873;BME280;17579;42.690;2.586;2023-08-20T09:01:41;97517.16;;;35.37;35.07
30873;BME280;17579;42.690;2.586;2023-08-20T09:04:31;97522.41;;;35.34;35.25
30873;BME280;17579;42.690;2.586;2023-08-20T09:07:00;97519.88;;;35.18;35.72
30873;BME280;17579;42.690;2.586;2023-08-20T09:09:35;97520.19;;;35.17;36.28
30873;BME280;17579;42.690;2.586;2023-08-20T09:15:13;97522.34;;;35.20;36.15
30873;BME280;17579;42.690;2.586;2023-08-20T09:20:37;97510.69;;;35.09;36.93
30873;BME280;17579;42.690;2.586;2023-08-20T09:23:45;97517.47;;;34.98;37.02
30873;BME280;17579;42.690;2.586;2023-08-20T09:26:25;97506.84;;;35.10;37.10
30873;BME280;17579;42.690;2.586;2023-08-20T09:38:42;97513.13;;;35.30;37.01
30873;BME280;17579;42.690;2.586;2023-08-20T09:41:28;97511.22;;;35.30;37.05
30873;BME280;17579;42.690;2.586;2023-08-20T09:44:18;97516.25;;;35.42;36.90
30873;BME280;17579;42.690;2.586;2023-08-20T09:46:51;97514.41;;;35.37;36.75
30873;BME280;17579;42.690;2.586;2023-08-20T10:02:44;97516.97;;;35.81;35.85
30873;BME280;17579;42.690;2.586;2023-08-20T10:05:53;97520.03;;;35.93;35.98
30873;BME280;17579;42.690;2.586;2023-08-20T10:08:46;97516.97;;;35.95;35.87
30873;BME280;17579;42.690;2.586;2023-08-20T10:14:41;97521.72;;;35.75;36.25
30873;BME280;17579;42.690;2.586;2023-08-20T10:17:37;97524.84;;;35.68;35.85
30873;BME280;17579;42.690;2.586;2023-08-20T10:26:40;97514.69;;;35.69;36.20
30873;BME280;17579;42.690;2.586;2023-08-20T10:35:09;97516.56;;;35.87;35.35
30873;BME280;17579;42.690;2.586;2023-08-20T10:41:42;97518.34;;;35.78;35.43
30873;BME280;17579;42.690;2.586;2023-08-20T10:47:19;97510.25;;;35.87;35.15
30873;BME280;17579;42.690;2.586;2023-08-20T10:50:20;97513.00;;;36.01;34.31
30873;BME280;17579;42.690;2.586;2023-08-20T10:56:20;97507.50;;;36.15;33.77
30873;BME280;17579;42.690;2.586;2023-08-20T11:01:50;97514.72;;;36.24;33.67
30873;BME280;17579;42.690;2.586;2023-08-20T11:04:36;97500.38;;;36.14;33.89
30873;BME280;17579;42.690;2.586;2023-08-20T11:07:17;97494.97;;;36.22;33.32
30873;BME280;17579;42.690;2.586;2023-08-20T11:10:13;97498.63;;;36.18;33.21
30873;BME280;17579;42.690;2.586;2023-08-20T11:12:43;97495.06;;;36.17;33.43
30873;BME280;17579;42.690;2.586;2023-08-20T11:15:18;97506.59;;;36.19;33.72
30873;BME280;17579;42.690;2.586;2023-08-20T11:20:59;97495.78;;;36.37;33.22
30873;BME280;17579;42.690;2.586;2023-08-20T11:23:32;97493.22;;;36.40;33.44
30873;BME280;17579;42.690;2.586;2023-08-20T11:26:17;97492.81;;;36.47;33.73
30873;BME280;17579;42.690;2.586;2023-08-20T11:29:31;97491.16;;;36.46;33.52
30873;BME280;17579;42.690;2.586;2023-08-20T11:32:32;97494.22;;;36.45;33.86
30873;BME280;17579;42.690;2.586;2023-08-20T11:35:36;97479.34;;;36.46;33.80
30873;BME280;17579;42.690;2.586;2023-08-20T11:48:29;97485.75;;;36.55;33.49
30873;BME280;17579;42.690;2.586;2023-08-20T12:22:37;97473.97;;;37.36;31.33
30873;BME280;17579;42.690;2.586;2023-08-20T12:28:38;97457.97;;;37.24;31.16
30873;BME280;17579;42.690;2.586;2023-08-20T12:34:53;97464.50;;;37.29;31.40
30873;BME280;17579;42.690;2.586;2023-08-20T12:38:06;97465.72;;;37.22;31.47
30873;BME280;17579;42.690;2.586;2023-08-20T12:40:47;97465.72;;;37.22;31.31
30873;BME280;17579;42.690;2.586;2023-08-20T12:43:36;97470.13;;;37.23;31.91
30873;BME280;17579;42.690;2.586;2023-08-20T12:46:39;97465.19;;;37.12;32.42
30873;BME280;17579;42.690;2.586;2023-08-20T12:52:40;97462.66;;;37.24;31.94
30873;BME280;17579;42.690;2.586;2023-08-20T12:55:11;97458.66;;;37.53;31.00
30873;BME280;17579;42.690;2.586;2023-08-20T12:57:52;97455.28;;;37.65;30.71
30873;BME280;17579;42.690;2.586;2023-08-20T13:00:18;97464.31;;;37.79;30.36
30873;BME280;17579;42.690;2.586;2023-08-20T13:02:47;97460.63;;;38.01;30.36
30873;BME280;17579;42.690;2.586;2023-08-20T13:05:22;97450.47;;;38.19;29.94
30873;BME280;17579;42.690;2.586;2023-08-20T13:07:48;97448.75;;;38.50;29.16
30873;BME280;17579;42.690;2.586;2023-08-20T13:10:17;97445.38;;;38.79;29.48
30873;BME280;17579;42.690;2.586;2023-08-20T13:12:51;97454.81;;;38.87;29.37
30873;BME280;17579;42.690;2.586;2023-08-20T13:15:25;97442.75;;;39.09;28.13
30873;BME280;17579;42.690;2.586;2023-08-20T13:17:53;97453.00;;;39.26;28.71
30873;BME280;17579;42.690;2.586;2023-08-20T13:20:19;97445.00;;;39.33;28.26
30873;BME280;17579;42.690;2.586;2023-08-20T13:22:47;97437.66;;;39.46;27.80
30873;BME280;17579;42.690;2.586;2023-08-20T13:25:23;97441.72;;;39.57;27.22
30873;BME280;17579;42.690;2.586;2023-08-20T13:27:54;97438.19;;;39.78;27.18
30873;BME280;17579;42.690;2.586;2023-08-20T13:30:45;97437.97;;;39.92;26.83
30873;BME280;17579;42.690;2.586;2023-08-20T13:33:40;97440.88;;;39.95;26.79
30873;BME280;17579;42.690;2.586;2023-08-20T13:36:19;97439.94;;;40.21;26.37
30873;BME280;17579;42.690;2.586;2023-08-20T13:38:47;97440.97;;;40.16;26.37
30873;BME280;17579;42.690;2.586;2023-08-20T13:41:31;97437.91;;;40.09;26.50
30873;BME280;17579;42.690;2.586;2023-08-20T13:44:19;97432.88;;;40.03;25.96
30873;BME280;17579;42.690;2.586;2023-08-20T13:47:11;97435.03;;;39.88;25.82
30873;BME280;17579;42.690;2.586;2023-08-20T13:49:42;97437.81;;;39.88;26.01
30873;BME280;17579;42.690;2.586;2023-08-20T13:52:49;97432.88;;;39.73;25.61
30873;BME280;17579;42.690;2.586;2023-08-20T13:55:19;97432.69;;;39.69;26.21
30873;BME280;17579;42.690;2.586;2023-08-20T13:58:29;97433.66;;;39.73;26.68
30873;BME280;17579;42.690;2.586;2023-08-20T14:01:38;97436.06;;;39.83;25.34
30873;BME280;17579;42.690;2.586;2023-08-20T14:04:33;97446.00;;;39.84;25.70
30873;BME280;17579;42.690;2.586;2023-08-20T14:07:04;97428.41;;;39.80;24.94
30873;BME280;17579;42.690;2.586;2023-08-20T14:10:10;97429.94;;;39.69;25.18
30873;BME280;17579;42.690;2.586;2023-08-20T14:12:47;97430.78;;;39.61;24.48
30873;BME280;17579;42.690;2.586;2023-08-20T14:15:19;97425.41;;;39.64;24.36
30873;BME280;17579;42.690;2.586;2023-08-20T14:18:27;97426.84;;;39.71;25.08
30873;BME280;17579;42.690;2.586;2023-08-20T14:28:09;97414.03;;;39.57;25.69
30873;BME280;17579;42.690;2.586;2023-08-20T14:31:07;97411.31;;;39.40;25.40
30873;BME280;17579;42.690;2.586;2023-08-20T14:33:53;97412.44;;;39.39;25.54
30873;BME280;17579;42.690;2.586;2023-08-20T14:37:02;97411.94;;;39.37;25.67
30873;BME280;17579;42.690;2.586;2023-08-20T14:39:52;97399.78;;;39.29;26.03
30873;BME280;17579;42.690;2.586;2023-08-20T14:43:18;97397.34;;;39.10;25.97
30873;BME280;17579;42.690;2.586;2023-08-20T14:46:00;97393.81;;;38.92;26.11
30873;BME280;17579;42.690;2.586;2023-08-20T14:48:28;97391.72;;;38.71;26.04
30873;BME280;17579;42.690;2.586;2023-08-20T14:51:11;97392.84;;;38.53;26.71
30873;BME280;17579;42.690;2.586;2023-08-20T14:54:48;97401.28;;;38.30;26.50
30873;BME280;17579;42.690;2.586;2023-08-20T15:00:26;97394.38;;;38.01;27.25
30873;BME280;17579;42.690;2.586;2023-08-20T15:03:08;97392.41;;;37.93;27.54
30873;BME280;17579;42.690;2.586;2023-08-20T15:05:47;97385.41;;;37.87;27.84
30873;BME280;17579;42.690;2.586;2023-08-20T15:08:48;97387.53;;;37.90;27.16
30873;BME280;17579;42.690;2.586;2023-08-20T15:11:25;97399.69;;;37.80;27.17
30873;BME280;17579;42.690;2.586;2023-08-20T15:14:01;97397.88;;;37.75;27.18
30873;BME280;17579;42.690;2.586;2023-08-20T15:16:59;97396.84;;;37.71;27.08
30873;BME280;17579;42.690;2.586;2023-08-20T15:19:50;97408.53;;;37.68;26.85
30873;BME280;17579;42.690;2.586;2023-08-20T15:22:19;97401.34;;;37.58;26.36
30873;BME280;17579;42.690;2.586;2023-08-20T15:25:12;97403.72;;;37.42;26.83
30873;BME280;17579;42.690;2.586;2023-08-20T15:27:55;97404.03;;;37.41;26.72
30873;BME280;17579;42.690;2.586;2023-08-20T15:30:33;97403.50;;;37.30;26.18
30873;BME280;17579;42.690;2.586;2023-08-20T15:33:39;97399.16;;;37.15;26.68
30873;BME280;17579;42.690;2.586;2023-08-20T15:39:08;97402.78;;;36.93;26.54
30873;BME280;17579;42.690;2.586;2023-08-20T15:41:39;97404.53;;;36.75;27.09
30873;BME280;17579;42.690;2.586;2023-08-20T15:47:02;97405.84;;;36.55;27.60
30873;BME280;17579;42.690;2.586;2023-08-20T15:49:30;97403.41;;;36.53;27.83
30873;BME280;17579;42.690;2.586;2023-08-20T15:52:18;97403.53;;;36.48;27.68
30873;BME280;17579;42.690;2.586;2023-08-20T16:01:14;97412.94;;;36.33;27.52
30873;BME280;17579;42.690;2.586;2023-08-20T16:03:47;97407.66;;;36.23;27.50
30873;BME280;17579;42.690;2.586;2023-08-20T16:06:34;97409.31;;;36.10;27.52
30873;BME280;17579;42.690;2.586;2023-08-20T16:12:04;97414.00;;;35.96;27.67
30873;BME280;17579;42.690;2.586;2023-08-20T16:14:59;97410.16;;;35.83;27.85
30873;BME280;17579;42.690;2.586;2023-08-20T16:17:37;97413.59;;;35.88;27.79
30873;BME280;17579;42.690;2.586;2023-08-20T16:20:11;97407.69;;;35.81;27.76
30873;BME280;17579;42.690;2.586;2023-08-20T16:22:46;97418.41;;;35.83;28.06
30873;BME280;17579;42.690;2.586;2023-08-20T16:25:17;97414.31;;;35.80;28.22
30873;BME280;17579;42.690;2.586;2023-08-20T16:27:58;97412.41;;;35.81;27.96
30873;BME280;17579;42.690;2.586;2023-08-20T16:33:48;97422.75;;;35.70;28.04
30873;BME280;17579;42.690;2.586;2023-08-20T16:36:21;97418.97;;;35.66;27.58
30873;BME280;17579;42.690;2.586;2023-08-20T16:39:24;97414.50;;;35.56;27.72
30873;BME280;17579;42.690;2.586;2023-08-20T16:41:58;97415.31;;;35.56;27.80
30873;BME280;17579;42.690;2.586;2023-08-20T16:44:52;97405.00;;;35.48;27.75
30873;BME280;17579;42.690;2.586;2023-08-20T16:47:34;97408.69;;;35.44;28.31
30873;BME280;17579;42.690;2.586;2023-08-20T16:50:08;97410.41;;;35.39;28.43
30873;BME280;17579;42.690;2.586;2023-08-20T16:52:37;97416.44;;;35.42;28.39
30873;BME280;17579;42.690;2.586;2023-08-20T16:55:24;97403.78;;;35.41;28.26
30873;BME280;17579;42.690;2.586;2023-08-20T17:01:05;97402.53;;;35.33;28.35
30873;BME280;17579;42.690;2.586;2023-08-20T17:06:42;97407.38;;;35.22;28.90
30873;BME280;17579;42.690;2.586;2023-08-20T17:09:11;97401.16;;;35.16;29.20
30873;BME280;17579;42.690;2.586;2023-08-20T17:12:01;97400.94;;;35.13;28.97
30873;BME280;17579;42.690;2.586;2023-08-20T17:14:33;97399.03;;;35.13;28.69
30873;BME280;17579;42.690;2.586;2023-08-20T17:17:07;97399.94;;;35.09;28.78